Time;durP1;ratioP1;P1;durP2;ratioP2;P2;SDS_P1;SDS_P2;PMS_P1;PMS_P2;Temp;Humidity;BMP_temperature;BMP_pressure;BME280_temperature;BME280_humidity;BME280_pressure;Samples;Min_cycle;Max_cycle;Signal;HPM_P1;HPM_P2
2022/02/20 00:00:33;;;;;;;9.02;3.67;;;;;;;6.60;91.15;99383.81;5079263;28;20060;-59
2022/02/20 00:03:00;;;;;;;12.38;3.97;;;;;;;6.61;89.87;99363.31;5081535;28;20413;-59
2022/02/20 00:05:29;;;;;;;8.63;3.67;;;;;;;6.64;89.82;99363.50;5079852;28;20508;-58
2022/02/20 00:07:57;;;;;;;10.15;3.67;;;;;;;6.70;88.84;99364.19;5080400;28;20489;-59
2022/02/20 00:10:24;;;;;;;5.50;2.70;;;;;;;6.66;87.43;99368.72;5077576;28;20056;-59
2022/02/20 00:12:52;;;;;;;8.00;2.92;;;;;;;6.68;88.11;99361.75;5077863;28;20052;-59
2022/02/20 00:15:19;;;;;;;6.35;2.75;;;;;;;6.74;88.65;99358.84;5075876;28;20070;-58
2022/02/20 00:17:50;;;;;;;8.82;3.28;;;;;;;6.78;88.02;99379.22;5076912;28;20508;-58
2022/02/20 00:20:17;;;;;;;10.50;3.60;;;;;;;6.87;87.27;99378.13;5079568;28;20055;-58
2022/02/20 00:22:46;;;;;;;13.32;3.50;;;;;;;6.83;86.57;99371.59;5079328;28;20057;-58
2022/02/20 00:25:14;;;;;;;11.70;3.47;;;;;;;6.86;86.73;99382.03;5076931;28;20055;-57
2022/02/20 00:27:41;;;;;;;10.35;3.72;;;;;;;6.89;86.78;99405.50;5079762;28;20392;-57
2022/02/20 00:30:09;;;;;;;11.02;4.05;;;;;;;6.94;84.82;99413.66;5081973;28;20048;-58
2022/02/20 00:32:36;;;;;;;11.50;4.15;;;;;;;7.02;85.73;99401.03;5080138;28;20052;-58
2022/02/20 00:35:03;;;;;;;8.50;3.38;;;;;;;7.00;84.65;99417.13;5080535;28;20118;-59
2022/02/20 00:37:31;;;;;;;8.80;3.80;;;;;;;7.02;85.38;99414.88;5079763;28;20047;-57
2022/02/20 00:39:59;;;;;;;15.40;5.00;;;;;;;7.08;84.40;99421.91;5080280;28;20051;-58
2022/02/20 00:42:27;;;;;;;9.45;4.28;;;;;;;7.09;84.19;99456.75;5081044;28;20063;-57
2022/02/20 00:44:54;;;;;;;14.02;5.38;;;;;;;7.13;85.01;99463.28;5091211;28;20051;-58
2022/02/20 00:47:22;;;;;;;14.98;6.05;;;;;;;7.15;83.96;99466.56;5080238;28;20067;-57
2022/02/20 00:49:49;;;;;;;13.38;6.38;;;;;;;7.20;84.37;99472.00;5091784;28;20063;-58
2022/02/20 00:52:16;;;;;;;10.57;4.95;;;;;;;7.16;82.75;99490.38;5090196;28;20075;-57
2022/02/20 00:54:44;;;;;;;11.35;4.97;;;;;;;7.17;82.92;99486.47;5073919;28;20044;-57
2022/02/20 00:57:14;;;;;;;15.00;5.15;;;;;;;7.20;82.95;99494.16;5081200;28;20051;-56
2022/02/20 00:59:41;;;;;;;10.25;4.70;;;;;;;7.17;80.78;99518.88;5092100;28;20131;-57
2022/02/20 01:02:08;;;;;;;10.35;3.88;;;;;;;7.11;79.24;99549.44;5075552;28;20049;-58
2022/02/20 01:04:36;;;;;;;10.52;4.05;;;;;;;7.04;79.78;99515.03;5073436;28;20443;-57
2022/02/20 01:07:03;;;;;;;9.63;4.95;;;;;;;7.02;80.85;99518.13;5073638;28;20055;-57
2022/02/20 01:09:32;;;;;;;7.78;4.07;;;;;;;7.05;79.20;99547.13;5078895;28;20048;-58
2022/02/20 01:11:59;;;;;;;7.15;3.10;;;;;;;6.97;77.31;99550.63;5076997;28;20052;-57
2022/02/20 01:14:27;;;;;;;5.88;3.22;;;;;;;6.91;78.12;99550.75;5079958;28;20245;-57
2022/02/20 01:16:55;;;;;;;7.47;3.72;;;;;;;6.82;78.14;99558.16;5079218;28;20053;-57
2022/02/20 01:19:23;;;;;;;8.45;3.97;;;;;;;6.75;78.27;99557.78;5073428;28;20064;-57
2022/02/20 01:21:50;;;;;;;9.15;3.92;;;;;;;6.77;77.31;99565.78;5073551;28;20080;-57
2022/02/20 01:24:17;;;;;;;9.15;3.55;;;;;;;6.71;77.80;99568.66;5073071;28;20052;-58
2022/02/20 01:26:45;;;;;;;9.52;4.18;;;;;;;6.73;78.43;99575.84;5074375;28;20040;-57
2022/02/20 01:29:12;;;;;;;7.93;3.65;;;;;;;6.69;78.33;99576.44;5092425;28;20056;-57
2022/02/20 01:31:41;;;;;;;5.57;3.50;;;;;;;6.66;77.52;99584.56;5078615;28;20059;-57
2022/02/20 01:34:08;;;;;;;9.00;4.10;;;;;;;6.63;77.03;99599.00;5072812;28;20056;-57
2022/02/20 01:36:36;;;;;;;7.13;3.70;;;;;;;6.57;77.38;99600.25;5073637;28;20052;-57
2022/02/20 01:39:04;;;;;;;10.18;4.15;;;;;;;6.59;78.73;99609.03;5084789;28;20052;-58
2022/02/20 01:41:31;;;;;;;8.57;3.83;;;;;;;6.60;78.89;99639.19;5092861;28;20315;-58
2022/02/20 01:43:59;;;;;;;7.90;3.30;;;;;;;6.50;75.25;99615.31;5093233;28;20055;-58
2022/02/20 01:46:26;;;;;;;12.50;4.45;;;;;;;6.40;76.62;99623.81;5082320;28;20053;-58
2022/02/20 01:48:55;;;;;;;11.55;4.15;;;;;;;6.47;78.50;99632.53;5084153;28;20059;-58
2022/02/20 01:51:22;;;;;;;8.60;3.80;;;;;;;6.47;78.60;99646.38;5087098;28;20053;-58
2022/02/20 01:53:50;;;;;;;9.55;3.50;;;;;;;6.47;78.55;99637.25;5075578;28;20421;-59
2022/02/20 01:56:17;;;;;;;7.35;3.80;;;;;;;6.41;77.18;99642.06;5081582;28;20067;-59
2022/02/20 01:58:47;;;;;;;8.13;3.65;;;;;;;6.35;77.85;99651.59;5074896;28;20056;-59
2022/02/20 02:01:14;;;;;;;8.45;4.68;;;;;;;6.41;79.38;99664.19;5079809;28;20065;-58
2022/02/20 02:03:41;;;;;;;7.18;3.50;;;;;;;6.27;76.73;99663.34;5079666;28;20075;-58
2022/02/20 02:06:10;;;;;;;10.10;3.80;;;;;;;6.29;78.13;99666.63;5083628;28;20515;-59
2022/02/20 02:08:37;;;;;;;10.88;3.90;;;;;;;6.33;78.85;99680.69;5092601;28;20078;-59
2022/02/20 02:11:05;;;;;;;8.45;3.45;;;;;;;6.29;78.15;99694.28;5092095;28;20449;-59
2022/02/20 02:13:33;;;;;;;7.82;3.70;;;;;;;6.25;77.28;99693.25;5092358;28;20511;-58
2022/02/20 02:16:01;;;;;;;7.60;3.25;;;;;;;6.28;78.74;99692.66;5088304;28;20048;-59
2022/02/20 02:18:28;;;;;;;10.45;3.20;;;;;;;6.16;76.40;99714.44;5088535;28;20052;-59
2022/02/20 02:20:56;;;;;;;7.03;3.42;;;;;;;6.19;77.64;99700.81;5075953;28;20055;-59
2022/02/20 02:23:25;;;;;;;9.05;3.35;;;;;;;6.16;75.65;99715.25;5088712;28;20055;-59
2022/02/20 02:25:55;;;;;;;6.32;3.20;;;;;;;6.16;77.43;99709.72;5092031;28;20488;-59
2022/02/20 02:28:22;;;;;;;12.90;3.90;;;;;;;6.16;78.11;99722.75;5071931;28;20040;-59
2022/02/20 02:30:50;;;;;;;9.23;2.95;;;;;;;6.19;77.41;99727.66;5074575;28;20063;-59
2022/02/20 02:33:27;;;;;;;9.73;2.85;;;;;;;6.23;78.53;99736.97;5088082;28;20052;-59
2022/02/20 02:35:55;;;;;;;8.13;2.90;;;;;;;6.22;78.05;99738.94;5077675;28;20057;-59
2022/02/20 02:38:26;;;;;;;9.15;3.25;;;;;;;6.25;78.56;99743.84;5085338;28;20052;-59
2022/02/20 02:40:56;;;;;;;11.90;4.10;;;;;;;6.31;79.57;99747.34;5081651;28;20059;-58
2022/02/20 02:43:23;;;;;;;7.03;3.47;;;;;;;6.37;79.65;99751.66;5074026;28;20048;-58
2022/02/20 02:45:54;;;;;;;7.47;3.30;;;;;;;6.38;78.93;99764.34;5090035;28;20059;-58
2022/02/20 02:48:21;;;;;;;7.20;3.05;;;;;;;6.32;78.03;99768.38;5089742;28;20481;-58
2022/02/20 02:50:49;;;;;;;9.75;3.80;;;;;;;6.30;77.75;99765.09;5080993;28;20053;-59
2022/02/20 02:53:17;;;;;;;6.90;3.47;;;;;;;6.26;77.18;99761.28;5082759;28;20048;-57
2022/02/20 02:55:46;;;;;;;8.65;4.03;;;;;;;6.30;78.06;99763.13;5087755;28;20048;-58
2022/02/20 02:58:17;;;;;;;6.18;3.13;;;;;;;6.30;78.08;99771.44;5075995;28;20059;-59
2022/02/20 03:00:45;;;;;;;5.97;3.55;;;;;;;6.28;78.18;99776.44;5072136;28;20052;-59
2022/02/20 03:03:12;;;;;;;11.07;4.10;;;;;;;6.28;76.84;99779.22;5073454;28;20413;-59
2022/02/20 03:05:40;;;;;;;11.68;4.43;;;;;;;6.25;78.87;99784.50;5078738;28;20044;-59
2022/02/20 03:08:07;;;;;;;9.25;4.80;;;;;;;6.28;77.57;99787.50;5087820;28;20047;-59
2022/02/20 03:10:37;;;;;;;8.80;4.80;;;;;;;6.32;78.56;99782.19;5081978;28;20504;-57
2022/02/20 03:13:07;;;;;;;8.82;4.63;;;;;;;6.33;79.03;99794.88;5079586;28;20059;-59
2022/02/20 03:15:35;;;;;;;7.80;3.80;;;;;;;6.30;77.11;99796.31;5087926;28;20051;-58
2022/02/20 03:18:02;;;;;;;7.47;4.20;;;;;;;6.27;77.35;99794.16;5073386;28;20413;-59
2022/02/20 03:20:29;;;;;;;7.50;4.28;;;;;;;6.35;77.70;99798.16;5083855;28;20123;-58
2022/02/20 03:22:57;;;;;;;8.13;4.00;;;;;;;6.41;79.09;99804.44;5085451;28;20059;-58
2022/02/20 03:25:24;;;;;;;7.75;4.22;;;;;;;6.39;78.04;99809.47;5077588;28;20048;-57
2022/02/20 03:27:52;;;;;;;7.13;3.67;;;;;;;6.37;76.31;99806.19;5090349;28;20495;-59
2022/02/20 03:30:20;;;;;;;9.50;4.22;;;;;;;6.37;76.78;99818.06;5091137;28;20408;-55
2022/02/20 03:32:48;;;;;;;9.68;4.05;;;;;;;6.34;76.88;99807.59;5074850;28;20060;-57
2022/02/20 03:35:15;;;;;;;8.50;3.80;;;;;;;6.27;76.87;99812.69;5075590;28;20052;-55
2022/02/20 03:37:42;;;;;;;10.07;4.65;;;;;;;6.29;76.70;99811.25;5081072;28;20048;-57
2022/02/20 03:40:11;;;;;;;10.45;3.40;;;;;;;6.35;77.44;99820.31;5079343;28;20052;-57
2022/02/20 03:42:38;;;;;;;5.10;3.00;;;;;;;6.30;75.67;99826.75;5082436;28;20061;-56
2022/02/20 03:45:07;;;;;;;6.10;3.03;;;;;;;6.26;75.94;99825.69;5077182;28;20068;-57
2022/02/20 03:47:36;;;;;;;8.52;3.42;;;;;;;6.32;78.25;99848.56;5078974;28;20478;-55
2022/02/20 03:50:05;;;;;;;5.68;3.40;;;;;;;6.31;76.72;99849.69;5081953;28;20053;-57
2022/02/20 03:52:33;;;;;;;6.60;3.70;;;;;;;6.32;76.66;99851.34;5076033;28;20051;-56
2022/02/20 03:55:01;;;;;;;8.35;4.13;;;;;;;6.32;77.80;99853.25;5080411;28;20048;-57
2022/02/20 03:57:32;;;;;;;7.07;3.50;;;;;;;6.40;77.68;99861.69;5088791;28;20052;-57
2022/02/20 03:59:59;;;;;;;7.20;3.83;;;;;;;6.35;76.05;99863.75;5079896;28;20052;-55
2022/02/20 04:02:30;;;;;;;5.28;3.40;;;;;;;6.27;74.42;99859.72;5079268;28;20056;-57
2022/02/20 04:04:59;;;;;;;7.22;4.03;;;;;;;6.27;76.03;99845.88;5080390;28;20048;-58
2022/02/20 04:07:26;;;;;;;8.20;3.85;;;;;;;6.24;75.26;99852.03;5079615;28;20044;-57
2022/02/20 04:09:53;;;;;;;6.25;3.83;;;;;;;6.27;75.04;99863.28;5083393;28;20068;-57
2022/02/20 04:12:21;;;;;;;6.55;4.18;;;;;;;6.32;75.30;99869.84;5082711;28;20503;-56
2022/02/20 04:14:50;;;;;;;6.65;4.57;;;;;;;6.27;76.76;99862.47;5084458;28;20059;-57
2022/02/20 04:17:20;;;;;;;6.93;4.50;;;;;;;6.31;76.50;99874.56;5079832;28;20064;-57
2022/02/20 04:19:47;;;;;;;8.07;4.65;;;;;;;6.31;76.09;99885.63;5085176;28;20110;-56
2022/02/20 04:22:16;;;;;;;6.88;4.53;;;;;;;6.37;77.03;99884.44;5082766;28;20044;-54
2022/02/20 04:24:47;;;;;;;6.35;3.90;;;;;;;6.43;77.00;99894.31;5078757;28;20052;-57
2022/02/20 04:27:17;;;;;;;6.80;4.28;;;;;;;6.34;75.24;99890.59;5078290;28;20052;-58
2022/02/20 04:29:45;;;;;;;8.30;5.00;;;;;;;6.29;74.36;99891.47;5093914;28;20051;-55
2022/02/20 04:32:12;;;;;;;7.32;5.40;;;;;;;6.29;75.91;99887.88;5084806;28;20055;-57
2022/02/20 04:34:39;;;;;;;9.00;5.93;;;;;;;6.29;75.64;99885.94;5082315;28;20119;-57
2022/02/20 04:37:07;;;;;;;8.25;4.63;;;;;;;6.28;75.71;99886.25;5093784;28;20118;-55
2022/02/20 04:39:35;;;;;;;8.68;4.22;;;;;;;6.18;73.95;99876.16;5088736;28;20051;-57
2022/02/20 04:42:03;;;;;;;8.95;4.22;;;;;;;6.12;74.92;99877.34;5085793;28;20397;-58
2022/02/20 04:44:31;;;;;;;5.82;3.30;;;;;;;6.14;74.50;99868.78;5083354;28;20051;-56
2022/02/20 04:46:58;;;;;;;8.18;3.65;;;;;;;6.01;74.26;99862.06;5082548;28;20053;-57
2022/02/20 04:49:25;;;;;;;6.55;3.22;;;;;;;6.04;75.45;99856.72;5076037;28;20060;-58
2022/02/20 04:51:52;;;;;;;8.70;3.05;;;;;;;6.02;75.15;99852.63;5075947;28;20058;-57
2022/02/20 04:54:20;;;;;;;7.80;3.17;;;;;;;5.99;74.64;99859.56;5082685;28;20049;-57
2022/02/20 04:56:48;;;;;;;6.03;3.15;;;;;;;5.92;74.90;99861.84;5082063;28;20048;-58
2022/02/20 04:59:16;;;;;;;7.18;3.40;;;;;;;5.93;74.46;99868.22;5083535;28;20048;-58
2022/02/20 05:01:43;;;;;;;8.25;3.30;;;;;;;5.94;75.96;99862.38;5082798;28;20048;-58
2022/02/20 05:04:10;;;;;;;6.38;2.95;;;;;;;5.98;76.28;99857.09;5084419;28;20055;-57
2022/02/20 05:06:38;;;;;;;9.75;3.60;;;;;;;5.94;75.61;99856.84;5083548;28;20059;-57
2022/02/20 05:09:06;;;;;;;6.28;2.88;;;;;;;5.87;75.76;99856.41;5086744;28;20481;-59
2022/02/20 05:11:34;;;;;;;6.85;3.20;;;;;;;5.81;74.82;99847.34;5078618;28;20059;-57
2022/02/20 05:14:06;;;;;;;9.73;4.53;;;;;;;5.83;75.26;99852.59;5088016;28;20075;-55
2022/02/20 05:16:33;;;;;;;8.48;3.38;;;;;;;5.82;75.18;99853.72;5081752;28;20049;-57
2022/02/20 05:19:01;;;;;;;9.55;3.90;;;;;;;5.84;76.03;99843.19;5093115;28;20055;-57
2022/02/20 05:21:28;;;;;;;11.82;3.90;;;;;;;5.83;75.38;99842.34;5088604;28;20429;-57
2022/02/20 05:23:55;;;;;;;7.78;4.10;;;;;;;5.80;75.09;99831.09;5084771;28;20504;-57
2022/02/20 05:26:23;;;;;;;7.72;3.60;;;;;;;5.79;75.76;99827.47;5076224;28;20056;-56
2022/02/20 05:28:50;;;;;;;5.68;3.55;;;;;;;5.82;76.13;99824.13;5087522;28;20508;-58
2022/02/20 05:31:19;;;;;;;8.13;3.97;;;;;;;5.87;76.98;99828.75;5078730;28;20048;-57
2022/02/20 05:33:46;;;;;;;5.30;3.50;;;;;;;5.83;76.48;99836.00;5083730;28;20057;-57
2022/02/20 05:36:14;;;;;;;6.25;3.55;;;;;;;5.95;77.03;99835.59;5082290;28;20044;-57
2022/02/20 05:38:41;;;;;;;5.43;3.55;;;;;;;5.98;76.39;99821.97;5087986;28;20075;-57
2022/02/20 05:41:08;;;;;;;7.88;5.00;;;;;;;5.96;76.48;99821.47;5091873;28;20058;-57
2022/02/20 05:43:36;;;;;;;7.88;4.15;;;;;;;6.02;76.64;99814.72;5086329;28;20048;-57
2022/02/20 05:46:03;;;;;;;10.32;4.35;;;;;;;6.04;76.56;99812.50;5079736;28;20048;-57
2022/02/20 05:48:32;;;;;;;6.07;3.72;;;;;;;6.00;76.02;99807.88;5080260;28;20079;-57
2022/02/20 05:51:01;;;;;;;10.07;4.40;;;;;;;5.99;75.78;99812.59;5087422;28;20048;-57
2022/02/20 05:53:28;;;;;;;8.50;4.65;;;;;;;6.00;75.86;99794.03;5083085;28;20048;-56
2022/02/20 05:55:56;;;;;;;7.40;3.92;;;;;;;6.10;76.73;99807.72;5073408;28;20063;-56
2022/02/20 05:58:23;;;;;;;8.18;3.63;;;;;;;6.14;76.01;99794.13;5088091;28;20489;-55
2022/02/20 06:00:51;;;;;;;9.38;3.35;;;;;;;6.16;77.07;99787.16;5081737;28;20066;-57
2022/02/20 06:03:18;;;;;;;7.43;3.72;;;;;;;6.15;76.58;99781.91;5083492;28;20478;-57
2022/02/20 06:05:49;;;;;;;10.18;4.05;;;;;;;6.21;77.30;99775.19;5084761;28;20059;-55
2022/02/20 06:08:19;;;;;;;10.43;4.13;;;;;;;6.15;76.28;99779.97;5074199;28;20052;-57
2022/02/20 06:10:46;;;;;;;7.55;3.95;;;;;;;6.23;76.38;99779.28;5092231;28;20126;-57
2022/02/20 06:13:14;;;;;;;9.25;4.18;;;;;;;6.26;76.63;99770.41;5091019;28;20048;-55
2022/02/20 06:15:41;;;;;;;10.27;4.32;;;;;;;6.17;76.75;99763.09;5089658;28;20481;-57
2022/02/20 06:18:08;;;;;;;8.45;4.35;;;;;;;6.26;77.64;99747.44;5084976;28;20048;-57
2022/02/20 06:20:36;;;;;;;12.82;5.43;;;;;;;6.31;78.32;99747.34;5091946;28;20096;-56
2022/02/20 06:23:04;;;;;;;13.40;5.10;;;;;;;6.24;77.34;99735.88;5078354;28;20059;-56
2022/02/20 06:25:32;;;;;;;12.35;4.95;;;;;;;6.33;78.13;99711.91;5091706;28;20420;-55
2022/02/20 06:27:59;;;;;;;10.68;5.03;;;;;;;6.33;78.09;99703.63;5091454;28;20078;-56
2022/02/20 06:30:27;;;;;;;11.57;4.80;;;;;;;6.32;78.14;99682.63;5071988;28;20180;-56
2022/02/20 06:32:54;;;;;;;13.18;5.93;;;;;;;6.39;79.91;99683.03;5087206;28;20054;-55
2022/02/20 06:35:21;;;;;;;13.45;5.60;;;;;;;6.43;79.17;99689.59;5088204;28;20055;-57
2022/02/20 06:37:48;;;;;;;13.95;6.13;;;;;;;6.42;79.27;99690.72;5084861;28;20059;-54
2022/02/20 06:40:17;;;;;;;10.07;5.00;;;;;;;6.46;79.28;99682.63;5072558;28;20040;-56
2022/02/20 06:42:45;;;;;;;14.10;5.57;;;;;;;6.48;80.25;99680.38;5071989;28;20496;-56
2022/02/20 06:45:13;;;;;;;12.30;5.30;;;;;;;6.34;79.81;99688.69;5071894;28;20424;-56
2022/02/20 06:47:41;;;;;;;16.63;5.93;;;;;;;6.34;79.64;99674.84;5086782;28;20078;-55
2022/02/20 06:50:08;;;;;;;14.10;6.05;;;;;;;6.43;80.25;99650.88;5088389;28;20386;-56
2022/02/20 06:52:36;;;;;;;15.18;5.60;;;;;;;6.45;80.99;99656.91;5082046;28;20052;-55
2022/02/20 06:55:04;;;;;;;12.18;5.28;;;;;;;6.43;80.40;99645.34;5091930;28;20071;-50
2022/02/20 06:57:36;;;;;;;11.23;5.45;;;;;;;6.36;80.27;99647.66;5091693;28;20051;-56
2022/02/20 07:00:06;;;;;;;13.32;5.43;;;;;;;6.42;80.83;99637.34;5091500;28;20055;-54
2022/02/20 07:02:34;;;;;;;13.15;5.45;;;;;;;6.41;80.90;99633.75;5076907;28;20056;-56
2022/02/20 07:05:01;;;;;;;12.95;5.85;;;;;;;6.47;81.25;99637.25;5088482;28;20054;-56
2022/02/20 07:07:28;;;;;;;13.73;5.60;;;;;;;6.46;81.21;99621.75;5095912;28;20420;-57
2022/02/20 07:09:56;;;;;;;14.43;5.70;;;;;;;6.49;81.15;99618.41;5085203;28;20040;-57
2022/02/20 07:12:23;;;;;;;18.17;6.70;;;;;;;6.58;81.72;99618.50;5095311;28;20051;-57
2022/02/20 07:14:52;;;;;;;16.80;5.55;;;;;;;6.59;81.78;99617.34;5081603;28;20504;-56
2022/02/20 07:17:20;;;;;;;11.03;5.57;;;;;;;6.60;81.88;99599.63;5086832;28;20400;-57
2022/02/20 07:19:47;;;;;;;12.43;5.30;;;;;;;6.58;82.75;99608.25;5095771;28;20782;-57
2022/02/20 07:22:14;;;;;;;16.25;6.38;;;;;;;6.52;82.65;99590.09;5095698;28;20063;-57
2022/02/20 07:24:42;;;;;;;15.45;6.25;;;;;;;6.58;82.84;99594.41;5094045;28;20067;-54
2022/02/20 07:27:10;;;;;;;16.65;6.10;;;;;;;6.52;84.31;99576.28;5078184;28;20167;-57
2022/02/20 07:29:37;;;;;;;14.90;6.10;;;;;;;6.49;85.00;99579.66;5084314;28;20406;-55
2022/02/20 07:32:07;;;;;;;14.02;6.30;;;;;;;6.50;85.07;99562.75;5081857;28;20044;-55
2022/02/20 07:34:35;;;;;;;;;;;;;;;6.57;84.93;99540.19;5095686;28;20052;-54
2022/02/20 07:37:02;;;;;;;23.70;6.40;;;;;;;6.53;85.25;99546.66;5095063;28;20365;-54
2022/02/20 07:39:30;;;;;;;16.85;6.10;;;;;;;6.56;86.39;99549.63;5079927;28;20048;-56
2022/02/20 07:41:57;;;;;;;11.95;5.13;;;;;;;6.50;87.09;99537.84;5090306;28;20067;-54
2022/02/20 07:44:24;;;;;;;20.23;7.35;;;;;;;6.49;87.47;99539.00;5082966;28;20060;-54
2022/02/20 07:46:56;;;;;;;20.17;7.07;;;;;;;6.48;90.64;99550.34;5085765;28;20048;-56
2022/02/20 07:49:24;;;;;;;13.65;5.32;;;;;;;6.47;89.95;99548.72;5075385;28;20064;-55
2022/02/20 07:51:52;;;;;;;15.00;5.60;;;;;;;6.43;91.29;99545.75;5080532;28;20052;-56
2022/02/20 07:54:19;;;;;;;12.57;5.07;;;;;;;6.48;90.93;99556.69;5080593;28;20064;-56
2022/02/20 07:56:46;;;;;;;15.38;6.03;;;;;;;6.55;90.46;99542.47;5086198;28;20404;-57
2022/02/20 07:59:14;;;;;;;12.75;5.28;;;;;;;6.63;90.34;99543.66;5083486;28;20067;-57
2022/02/20 08:01:41;;;;;;;9.65;4.60;;;;;;;6.61;90.88;99537.63;5092783;28;20052;-57
2022/02/20 08:04:08;;;;;;;14.65;4.45;;;;;;;6.59;91.92;99549.00;5092955;28;20056;-57
2022/02/20 08:06:37;;;;;;;14.90;4.55;;;;;;;6.62;93.15;99547.56;5084131;28;20045;-57
2022/02/20 08:09:05;;;;;;;13.20;4.35;;;;;;;6.60;91.90;99538.75;5080077;28;20076;-58
2022/02/20 08:11:33;;;;;;;9.20;3.72;;;;;;;6.46;93.38;99570.00;5093632;28;20044;-58
2022/02/20 08:14:01;;;;;;;9.55;3.90;;;;;;;6.56;93.44;99554.34;5094604;28;20051;-58
2022/02/20 08:16:29;;;;;;;12.38;4.35;;;;;;;6.56;94.44;99512.84;5077219;28;20044;-58
2022/02/20 08:18:56;;;;;;;14.13;4.28;;;;;;;6.60;94.04;99524.94;5073779;28;20060;-59
2022/02/20 08:21:23;;;;;;;8.63;3.50;;;;;;;6.64;95.23;99528.72;5074829;28;20057;-59
2022/02/20 08:23:52;;;;;;;14.27;4.28;;;;;;;6.68;94.53;99529.72;5080984;28;20052;-59
2022/02/20 08:26:21;;;;;;;6.23;3.20;;;;;;;6.72;95.04;99519.69;5079098;28;20071;-59
2022/02/20 08:28:49;;;;;;;7.83;3.50;;;;;;;6.87;94.27;99518.50;5082098;28;20063;-59
2022/02/20 08:31:19;;;;;;;8.85;3.40;;;;;;;6.84;94.68;99521.88;5081973;28;20491;-57
2022/02/20 08:33:46;;;;;;;11.82;5.38;;;;;;;6.95;95.08;99511.38;5073841;28;20052;-60
2022/02/20 08:36:14;;;;;;;8.77;3.00;;;;;;;6.99;94.67;99518.75;5076492;28;20052;-59
2022/02/20 08:38:41;;;;;;;9.75;3.35;;;;;;;7.04;94.27;99502.00;5074470;28;20053;-59
2022/02/20 08:41:10;;;;;;;6.70;3.28;;;;;;;7.13;95.14;99513.13;5094038;28;20389;-59
2022/02/20 08:43:37;;;;;;;8.90;3.10;;;;;;;7.25;94.25;99513.38;5092766;28;20044;-59
2022/02/20 08:46:04;;;;;;;5.82;2.88;;;;;;;7.27;94.09;99507.53;5086758;28;20052;-59
2022/02/20 08:48:36;;;;;;;5.82;2.72;;;;;;;7.21;94.43;99503.25;5073859;28;20053;-59
2022/02/20 08:51:04;;;;;;;8.77;2.90;;;;;;;7.22;99.28;99510.44;5073994;28;20052;-60
2022/02/20 08:53:31;;;;;;;6.57;2.72;;;;;;;7.22;100.00;99525.09;5085868;28;20052;-59
2022/02/20 08:55:59;;;;;;;6.03;2.92;;;;;;;7.24;100.00;99520.06;5093552;28;20088;-59
2022/02/20 08:58:28;;;;;;;13.07;4.40;;;;;;;7.38;100.00;99508.09;5075307;28;20052;-59
2022/02/20 09:00:55;;;;;;;4.80;2.30;;;;;;;7.35;96.88;99505.94;5075226;28;20480;-59
2022/02/20 09:03:23;;;;;;;6.18;3.58;;;;;;;7.39;95.81;99505.00;5076901;28;20382;-60
2022/02/20 09:05:50;;;;;;;7.07;3.58;;;;;;;7.56;95.21;99509.84;5081653;28;20051;-60
2022/02/20 09:08:17;;;;;;;5.95;3.17;;;;;;;7.66;94.35;99504.00;5086952;28;20042;-60
2022/02/20 09:10:45;;;;;;;5.95;3.45;;;;;;;7.71;93.08;99512.19;5082207;28;20067;-59
2022/02/20 09:13:13;;;;;;;6.82;3.45;;;;;;;7.71;92.81;99506.63;5075514;28;20059;-59
2022/02/20 09:15:42;;;;;;;5.70;2.70;;;;;;;7.69;92.55;99500.59;5081829;28;20051;-59
2022/02/20 09:18:09;;;;;;;5.15;2.78;;;;;;;7.76;93.43;99488.22;5083282;28;20059;-59
2022/02/20 09:20:37;;;;;;;8.38;4.82;;;;;;;7.85;93.53;99497.38;5077104;28;20044;-59
2022/02/20 09:23:07;;;;;;;9.48;3.83;;;;;;;7.92;93.98;99511.63;5090403;28;20535;-59
2022/02/20 09:25:35;;;;;;;8.23;4.60;;;;;;;8.01;93.80;99523.56;5084043;28;20504;-59
2022/02/20 09:28:02;;;;;;;7.35;3.60;;;;;;;8.04;93.16;99503.50;5082010;28;20048;-59
2022/02/20 09:30:29;;;;;;;8.55;5.22;;;;;;;8.10;92.92;99477.25;5083384;28;20055;-59
2022/02/20 09:32:58;;;;;;;7.40;4.10;;;;;;;8.16;92.52;99483.47;5085125;28;20052;-59
2022/02/20 09:35:26;;;;;;;4.37;3.37;;;;;;;8.15;92.58;99498.50;5080463;28;20052;-59
2022/02/20 09:37:56;;;;;;;7.13;3.90;;;;;;;8.19;93.53;99505.03;5084959;28;20496;-59
2022/02/20 09:40:25;;;;;;;8.90;4.70;;;;;;;8.28;92.64;99499.50;5072774;28;20051;-59
2022/02/20 09:42:52;;;;;;;5.60;3.47;;;;;;;8.26;92.59;99480.38;5073446;28;20075;-59
2022/02/20 09:45:22;;;;;;;18.58;4.40;;;;;;;8.40;92.59;99487.75;5072911;28;20048;-59
2022/02/20 09:47:50;;;;;;;11.20;5.00;;;;;;;8.46;92.57;99478.16;5078903;28;20052;-59
2022/02/20 09:50:19;;;;;;;5.10;3.70;;;;;;;8.34;92.76;99479.59;5089260;28;20051;-59
2022/02/20 09:52:46;;;;;;;7.87;4.47;;;;;;;8.34;92.91;99496.25;5072453;28;20052;-59
2022/02/20 09:55:13;;;;;;;6.70;4.07;;;;;;;8.51;93.12;99487.16;5077701;28;20516;-59
2022/02/20 09:57:41;;;;;;;8.55;3.72;;;;;;;8.50;92.06;99481.91;5077317;28;20058;-59
2022/02/20 10:00:10;;;;;;;9.13;5.38;;;;;;;8.51;92.34;99473.28;5075333;28;20040;-60
2022/02/20 10:02:40;;;;;;;8.93;5.13;;;;;;;8.61;92.58;99462.97;5087743;28;20044;-60
2022/02/20 10:05:17;;;;;;;10.68;6.78;;;;;;;8.67;92.25;99475.56;5077496;28;20056;-58
2022/02/20 10:07:47;;;;;;;7.78;5.07;;;;;;;8.74;92.46;99460.06;5084278;28;20059;-57
2022/02/20 10:10:16;;;;;;;7.68;4.20;;;;;;;8.75;91.51;99466.41;5080120;28;20048;-59
2022/02/20 10:12:44;;;;;;;7.27;3.90;;;;;;;8.89;91.62;99475.41;5072001;28;20399;-59
2022/02/20 10:15:32;;;;;;;8.02;4.30;;;;;;;8.92;91.67;99469.22;5072374;28;20048;-59
2022/02/20 10:18:09;;;;;;;6.38;3.88;;;;;;;8.88;91.70;99464.63;5074343;28;20049;-59
2022/02/20 10:20:36;;;;;;;5.78;3.50;;;;;;;8.92;91.31;99471.16;5081393;28;20052;-58
2022/02/20 10:23:07;;;;;;;6.20;3.92;;;;;;;8.96;91.40;99458.22;5072652;28;20083;-59
2022/02/20 10:25:34;;;;;;;6.72;3.30;;;;;;;9.03;90.64;99488.28;5082505;28;20052;-59
2022/02/20 10:28:06;;;;;;;7.47;3.90;;;;;;;9.12;90.92;99462.13;5087525;28;20052;-59
2022/02/20 10:30:35;;;;;;;4.95;3.30;;;;;;;9.09;90.82;99451.69;5072137;28;20378;-59
2022/02/20 10:33:06;;;;;;;10.18;3.53;;;;;;;9.13;91.31;99444.34;5071480;28;20375;-58
2022/02/20 10:35:34;;;;;;;5.40;3.22;;;;;;;9.13;91.01;99444.34;5091218;28;20052;-58
2022/02/20 10:38:13;;;;;;;3.95;2.55;;;;;;;9.18;90.07;99448.09;5090192;28;20384;-58
2022/02/20 10:40:43;;;;;;;4.88;2.90;;;;;;;9.27;90.00;99429.44;5083196;28;20068;-59
2022/02/20 10:43:26;;;;;;;4.63;2.90;;;;;;;9.43;89.71;99440.81;5073132;28;20040;-59
2022/02/20 10:46:07;;;;;;;5.15;2.85;;;;;;;9.44;88.73;99437.69;5070126;28;20409;-59
2022/02/20 10:48:39;;;;;;;5.65;3.03;;;;;;;9.55;88.48;99443.69;5080026;28;20496;-58
2022/02/20 10:51:08;;;;;;;4.90;2.58;;;;;;;9.58;87.91;99423.59;5086449;28;20051;-59
2022/02/20 10:53:37;;;;;;;4.28;2.22;;;;;;;9.66;88.19;99422.75;5090235;28;20059;-59
2022/02/20 10:56:04;;;;;;;3.53;1.85;;;;;;;9.70;87.10;99445.13;5071105;28;20049;-57
2022/02/20 10:58:35;;;;;;;4.47;1.90;;;;;;;9.69;86.69;99427.63;5072934;28;20057;-57
2022/02/20 11:01:05;;;;;;;2.78;1.65;;;;;;;9.73;87.23;99422.22;5071305;28;20067;-58
2022/02/20 11:03:34;;;;;;;3.53;1.60;;;;;;;9.72;86.76;99452.00;5072137;28;20520;-58
2022/02/20 11:06:02;;;;;;;9.35;2.85;;;;;;;9.70;86.20;99431.22;5077142;28;20048;-57
2022/02/20 11:08:30;;;;;;;4.57;1.88;;;;;;;9.67;86.41;99446.59;5071461;28;20048;-57
2022/02/20 11:11:36;;;;;;;8.00;2.22;;;;;;;9.69;85.73;99438.75;5074414;28;20412;-58
2022/02/20 11:13:49;;;;;;;5.72;2.10;;;;;;;9.67;84.82;99470.81;5085686;28;20056;-58
2022/02/20 11:16:17;;;;;;;;;;;;;;;9.65;84.11;99453.66;5071798;28;20423;-57
2022/02/20 11:18:46;;;;;;;6.68;2.40;;;;;;;9.68;85.85;99447.41;5071671;28;19927;-57
2022/02/20 11:21:15;;;;;;;7.63;2.67;;;;;;;9.72;85.97;99448.38;5074850;28;20070;-58
2022/02/20 11:23:45;;;;;;;8.52;2.90;;;;;;;9.74;85.60;99446.91;5071582;28;20127;-57
2022/02/20 11:26:15;;;;;;;11.98;3.17;;;;;;;9.81;85.83;99449.16;5071196;28;20099;-57
2022/02/20 11:28:42;;;;;;;;;;;;;;;9.81;84.74;99435.25;5081823;28;20048;-58
2022/02/20 11:31:10;;;;;;;5.95;2.67;;;;;;;9.81;84.89;99451.16;5075112;28;19920;-58
2022/02/20 11:33:41;;;;;;;8.00;3.00;;;;;;;9.81;83.78;99429.69;5076817;28;20056;-58
2022/02/20 11:36:10;;;;;;;9.05;2.75;;;;;;;9.91;83.98;99447.97;5071450;28;20067;-58
2022/02/20 11:38:38;;;;;;;7.60;2.90;;;;;;;9.90;83.60;99438.81;5071138;28;20056;-58
2022/02/20 11:41:12;;;;;;;10.07;2.97;;;;;;;10.00;83.70;99425.69;5070760;28;20053;-58
2022/02/20 11:43:45;;;;;;;8.48;2.45;;;;;;;10.02;82.76;99423.38;5072668;28;20064;-58